Tuesday, March 31, 2015
22:02 UTC
  |  Log In   |  Register Free
Airport Search:

Pearson Field Airport
(KVUO)

Pearson Field Airport Diagram
No Airport Diagram Available

FAA data valid effective March 05, 2015 - April 30, 2015 (unless otherwise noted).

 
 
 
 
 
 
 
 
 
 
 
 
 
 

Current Aviation Weather for Pearson Field Airport (KVUO)

The most recent METAR observation for KVUO was updated at: 2120
METAR Summary (Translated METAR)
KVUO
312053Z AUTO 31009KT 10SM BKN033 BKN044 OVC075 11/03 A3017 RMK AO2 SLP217 60000 T01060033 53012
KPDX
312110Z 29016G23KT 9SM SCT034 BKN055CB BKN075 10/05 A3019 RMK AO2 WSHFT 2050 PRESRR CB E S AND NW-N MOV E T01000050
(3.1 nm SE from KVUO)
KTTD
312053Z 19006KT 10SM -RA FEW038 BKN060 OVC095 09/06 A3016 RMK AO2 RAB42 SLP214 P0000 60026 T00940056 51013
(11.5 nm SE from KVUO)
TAF Summary (Translated TAF)
KPDX
(3.1 nm SE from KVUO)
312110Z 3121/0118 30010G20KT P6SM -SHRA SCT025 BKN040 TEMPO 3121/0101 SHRAGS BKN025 OVC040 FM010600 22006KT P6SM VCSH SCT030 BKN050 FM011200 19004KT P6SM VCSH BKN018 BKN040 FM011700 24006KT P6SM -SHRA BKN025 BKN040
KTTD
(11.5 nm SE from KVUO)
312018Z 3120/0118 21008KT P6SM -SHRA VCTS SCT025 BKN040CB FM312100 21008KT P6SM -SHRA SCT025 BKN040 TEMPO 3121/0101 SHRAGS BKN025 OVC040 FM010600 22006KT P6SM VCSH SCT030 BKN050 FM011200 VRB03KT P6SM VCSH BKN018 BKN040 FM011700 VRB03KT P6SM -SHRA BKN025 BKN040
  Airport Weather Conditions for KVUO

 Current Weather at VUO
51° F
Overcast
Northwest winds at 10.4 mph
VUO NOAA Radar

Pressure: 30.17 in
Humidity: 61%
Wind: Northwest at 10.4 MPH (9 KT)
Dew Point: 37.9°F
Visibility: 10.00 mi


Airport Weather Forecast for KVUO

Translated METAR and TAF for KVUO
Translated METAR for KVUO (2201 UTC 31 March 2015)
found at http://aviationweather.gov/adds/metars/
 
METAR text: KVUO 312153Z AUTO 28004KT 10SM FEW075 11/05 A3017 RMK AO2 RAB2057E20 SLP217 P0003 T01110050
Conditions at: KVUO (VANCOUVER , WA, US) observed 2153 UTC 31 March 2015
Temperature: 11.1°C (52°F)
Dewpoint: 5.0°C (41°F) [RH = 66%]
Pressure (altimeter): 30.17 inches Hg (1021.8 mb)
[Sea-level pressure: 1021.7 mb]
Winds: from the W (280 degrees) at 5 MPH (4 knots; 2.1 m/s)
Visibility: 10 or more miles (16+ km)
Ceiling: at least 12,000 feet AGL
Clouds: few clouds at 7500 feet AGL
Weather: automated observation with no human augmentation;
there may or may not be significant weather present at this time
Translated TAF for KVUO

There is no translated TAF available for this airport

Find All Airport Services Find A Hotel Find A Rental Car Find A Golf Course Find A Restaurant $100 Hamburger



FBO's on the Field
FBO Company Facility Photos Services Transportation Aviation Fuel Prices: Prices include tax
Catering Weather Repair Courtesy Rental Type 100LL JetA JetA+ MOGAS 8087
 
Aero Maintenance Inc

This FBO has not yet been rated
FS:Epic
Last Updated: Mar-03
Login to update fuel prices
SS:
Contact Aero Maintenance IncMore FBO Information
 
Add another FBO Facility Photos Catering Weather Repair Courtesy Rental Type 100LL JetA JetA+ MOGAS 8087
Services Transportation Aviation Fuel Prices: Prices include tax


model-print
model-print
model-print
model-print